Time;durP1;ratioP1;P1;durP2;ratioP2;P2;SDS_P1;SDS_P2;PMS_P1;PMS_P2;Temp;Humidity;BMP_temperature;BMP_pressure;BME280_temperature;BME280_humidity;BME280_pressure;Samples;Min_cycle;Max_cycle;Signal;HPM_P1;HPM_P2
2022/12/16 00:01:39;;;;;;;;;;;;;;;6.07;67.19;98714.84;4356186;32;35757;-64
2022/12/16 00:04:07;;;;;;;;;;;;;;;6.45;65.58;98721.81;4352556;32;31906;-64
2022/12/16 00:06:34;;;;;;;;;;;;;;;6.08;66.97;98715.69;4355674;32;33553;-65
2022/12/16 00:09:02;;;;;;;;;;;;;;;6.29;67.08;98710.59;4354449;32;34318;-64
2022/12/16 00:11:31;;;;;;;;;;;;;;;6.68;65.62;98709.47;4360604;32;33953;-63
2022/12/16 00:13:58;;;;;;;;;;;;;;;6.55;66.04;98706.03;4360380;32;32000;-67
2022/12/16 00:16:25;;;;;;;;;;;;;;;6.71;64.91;98698.59;4360561;32;35027;-63
2022/12/16 00:18:53;;;;;;;;;;;;;;;5.77;68.18;98696.63;4359365;32;35407;-65
2022/12/16 00:21:20;;;;;;;;;;;;;;;5.35;70.15;98685.44;4359637;32;33995;-67
2022/12/16 00:23:48;;;;;;;;;;;;;;;6.58;65.80;98700.50;4352292;32;32088;-65
2022/12/16 00:26:15;;;;;;;;;;;;;;;6.55;65.73;98703.38;4360269;32;33810;-64
2022/12/16 00:28:42;;;;;;;;;;;;;;;6.22;66.17;98693.41;4357728;32;34170;-65
2022/12/16 00:31:10;;;;;;;;;;;;;;;5.71;68.89;98694.41;4358205;32;33920;-64
2022/12/16 00:33:37;;;;;;;;;;;;;;;5.71;68.19;98685.59;4360742;32;33501;-64
2022/12/16 00:36:05;;;;;;;;;;;;;;;5.97;68.67;98692.59;4359839;32;34399;-64
2022/12/16 00:38:32;;;;;;;;;;;;;;;6.67;65.98;98688.28;4352196;32;33900;-63
2022/12/16 00:41:00;;;;;;;;;;;;;;;6.83;65.11;98688.00;4343285;32;35561;-64
2022/12/16 00:43:27;;;;;;;;;;;;;;;6.36;67.14;98687.97;4357028;32;32571;-63
2022/12/16 00:45:54;;;;;;;;;;;;;;;6.93;64.92;98691.63;4356931;32;34083;-66
2022/12/16 00:48:22;;;;;;;;;;;;;;;7.19;63.55;98684.31;4360143;32;33982;-64
2022/12/16 00:50:50;;;;;;;;;;;;;;;6.38;66.03;98677.19;4353345;32;33957;-64
2022/12/16 00:53:19;;;;;;;;;;;;;;;6.63;65.48;98678.88;4350697;32;34326;-64
2022/12/16 00:55:46;;;;;;;;;;;;;;;6.94;65.04;98674.72;4353638;32;34665;-64
2022/12/16 00:58:13;;;;;;;;;;;;;;;6.35;65.81;98672.09;4354849;32;35054;-64
2022/12/16 01:00:41;;;;;;;;;;;;;;;6.72;65.77;98673.69;4357629;32;34056;-64
2022/12/16 01:03:08;;;;;;;;;;;;;;;6.35;66.95;98672.09;4358931;32;34364;-64
2022/12/16 01:05:36;;;;;;;;;;;;;;;6.98;64.95;98658.41;4354886;32;33475;-66
2022/12/16 01:08:04;;;;;;;;;;;;;;;6.41;65.36;98653.88;4355827;32;34599;-65
2022/12/16 01:10:31;;;;;;;;;;;;;;;6.53;66.31;98649.47;4361119;32;34957;-67
2022/12/16 01:12:59;;;;;;;;;;;;;;;5.82;69.13;98646.69;4356827;32;33216;-64
2022/12/16 01:15:26;;;;;;;;;;;;;;;6.36;67.38;98632.16;4354740;32;33758;-67
2022/12/16 01:17:53;;;;;;;;;;;;;;;6.26;67.69;98626.66;4357890;32;33051;-65
2022/12/16 01:20:21;;;;;;;;;;;;;;;6.57;66.34;98615.53;4358216;32;35103;-64
2022/12/16 01:22:48;;;;;;;;;;;;;;;6.21;67.46;98609.38;4353380;32;32211;-67
2022/12/16 01:25:16;;;;;;;;;;;;;;;5.91;68.54;98613.31;4357331;32;35201;-65
2022/12/16 01:27:43;;;;;;;;;;;;;;;6.15;68.98;98597.38;4356767;32;34349;-64
2022/12/16 01:30:11;;;;;;;;;;;;;;;5.97;69.30;98604.94;4357565;32;33931;-64
2022/12/16 01:32:38;;;;;;;;;;;;;;;5.87;69.88;98595.88;4354144;32;34408;-64
2022/12/16 01:35:06;;;;;;;;;;;;;;;6.22;68.27;98584.47;4358217;32;34601;-67
2022/12/16 01:37:53;;;;;;;;;;;;;;;6.12;69.34;98579.00;4358503;32;34126;-64
2022/12/16 01:40:21;;;;;;;;;;;;;;;6.30;68.32;98569.66;4358447;32;34013;-67
2022/12/16 01:42:48;;;;;;;;;;;;;;;5.96;69.31;98562.53;4359385;32;33393;-64
2022/12/16 01:45:29;;;;;;;;;;;;;;;5.87;70.30;98566.69;4353247;32;34014;-64
2022/12/16 01:47:58;;;;;;;;;;;;;;;5.94;70.10;98561.78;4358691;32;33568;-64
2022/12/16 01:50:25;;;;;;;;;;;;;;;5.30;72.42;98552.28;4360192;32;34350;-64
2022/12/16 01:52:54;;;;;;;;;;;;;;;5.83;70.82;98539.50;4357382;32;33925;-64
2022/12/16 01:55:25;;;;;;;;;;;;;;;6.28;68.93;98525.56;4348296;32;33975;-63
2022/12/16 01:58:13;;;;;;;;;;;;;;;5.84;70.43;98527.06;4343821;32;36527;-62
2022/12/16 02:00:40;;;;;;;;;;;;;;;5.22;72.51;98514.81;4344644;32;35193;-63
2022/12/16 02:03:08;;;;;;;;;;;;;;;5.28;72.82;98509.06;4344682;32;32074;-63
2022/12/16 02:05:38;;;;;;;;;;;;;;;5.37;72.43;98496.94;4355893;32;33747;-64
2022/12/16 02:08:05;;;;;;;;;;;;;;;4.47;76.91;98479.56;4346401;32;32957;-62
2022/12/16 02:10:38;;;;;;;;;;;;;;;5.09;73.41;98471.56;4358777;32;34442;-63
2022/12/16 02:13:18;;;;;;;;;;;;;;;5.19;73.89;98462.00;4360386;32;34673;-64
2022/12/16 02:16:00;;;;;;;;;;;;;;;5.50;73.27;98444.66;4355935;32;34221;-63
2022/12/16 02:18:32;;;;;;;;;;;;;;;5.45;72.89;98416.75;4358126;32;34222;-63
2022/12/16 02:21:38;;;;;;;;;;;;;;;5.32;73.43;98407.06;4358911;32;33926;-63
2022/12/16 02:24:12;;;;;;;;;;;;;;;5.27;73.64;98398.63;4326562;33;32884;-63
2022/12/16 02:26:55;;;;;;;;;;;;;;;5.38;73.79;98393.34;4323737;33;34071;-65
2022/12/16 02:29:36;;;;;;;;;;;;;;;4.97;75.73;98398.22;4342799;32;34128;-64
2022/12/16 02:32:07;;;;;;;;;;;;;;;4.96;76.09;98393.87;4335301;32;33962;-62
2022/12/16 02:34:43;;;;;;;;;;;;;;;4.96;76.27;98394.72;4333091;33;33762;-63
2022/12/16 02:37:15;;;;;;;;;;;;;;;5.28;75.33;98397.66;4350907;32;34019;-63
2022/12/16 02:39:55;;;;;;;;;;;;;;;5.13;75.56;98393.47;4331317;33;33122;-63
2022/12/16 02:42:34;;;;;;;;;;;;;;;5.55;74.31;98404.50;4348269;32;34180;-63
2022/12/16 02:45:03;;;;;;;;;;;;;;;5.61;74.01;98410.19;4330158;33;34865;-64
2022/12/16 02:47:30;;;;;;;;;;;;;;;5.34;75.23;98414.91;4349207;32;32824;-66
2022/12/16 02:49:57;;;;;;;;;;;;;;;5.03;75.61;98424.28;4332383;33;35218;-64
2022/12/16 02:52:26;;;;;;;;;;;;;;;5.52;74.21;98439.22;4328557;33;35293;-63
2022/12/16 02:54:55;;;;;;;;;;;;;;;5.48;74.41;98440.41;4348519;32;34058;-65
2022/12/16 02:57:28;;;;;;;;;;;;;;;5.42;72.71;98435.56;4323513;33;34097;-66
2022/12/16 03:00:02;;;;;;;;;;;;;;;5.54;73.39;98429.34;4347483;32;33900;-66
2022/12/16 03:02:52;;;;;;;;;;;;;;;5.99;71.49;98416.22;4333597;33;35439;-63
2022/12/16 03:05:30;;;;;;;;;;;;;;;5.71;72.42;98404.19;4324175;33;34683;-64
2022/12/16 03:07:59;;;;;;;;;;;;;;;5.18;73.59;98409.06;4327510;33;35200;-63
2022/12/16 03:10:30;;;;;;;;;;;;;;;5.90;71.68;98374.41;4352900;32;33906;-65
2022/12/16 03:12:58;;;;;;;;;;;;;;;5.89;71.67;98370.06;4319819;33;34262;-63
2022/12/16 03:15:25;;;;;;;;;;;;;;;5.77;71.85;98372.69;4324016;33;34338;-64
2022/12/16 03:17:53;;;;;;;;;;;;;;;5.23;73.91;98367.09;4332131;33;34765;-64
2022/12/16 03:20:22;;;;;;;;;;;;;;;5.36;73.10;98318.34;4352302;32;33342;-64
2022/12/16 03:22:49;;;;;;;;;;;;;;;5.23;74.36;98351.19;4340818;32;33998;-65
2022/12/16 03:25:17;;;;;;;;;;;;;;;4.92;76.29;98368.56;4330415;33;33408;-66
2022/12/16 03:27:52;;;;;;;;;;;;;;;4.71;77.17;98363.84;4326789;33;34670;-67
2022/12/16 03:30:22;;;;;;;;;;;;;;;5.18;74.98;98345.41;4348855;32;33906;-68
2022/12/16 03:32:55;;;;;;;;;;;;;;;5.19;74.52;98345.28;4328567;33;34540;-68
2022/12/16 03:35:29;;;;;;;;;;;;;;;4.38;78.04;98359.19;4326843;33;31918;-69
2022/12/16 03:37:56;;;;;;;;;;;;;;;4.62;77.58;98361.84;4330110;33;33965;-66
2022/12/16 03:40:24;;;;;;;;;;;;;;;5.17;75.27;98354.31;4329692;33;34519;-66
2022/12/16 03:42:51;;;;;;;;;;;;;;;5.11;75.26;98361.78;4325089;33;34110;-66
2022/12/16 03:45:21;;;;;;;;;;;;;;;5.38;74.15;98348.22;4343874;32;32164;-66
2022/12/16 03:47:51;;;;;;;;;;;;;;;5.22;75.01;98346.84;4350537;32;32593;-64
2022/12/16 03:50:20;;;;;;;;;;;;;;;5.17;74.59;98352.53;4329326;33;34877;-65
2022/12/16 03:52:47;;;;;;;;;;;;;;;5.31;74.80;98347.00;4350985;32;34050;-64
2022/12/16 03:55:15;;;;;;;;;;;;;;;5.62;73.53;98352.66;4323749;33;33229;-63
2022/12/16 03:57:42;;;;;;;;;;;;;;;4.97;76.99;98355.78;4339172;33;34860;-67
2022/12/16 04:00:09;;;;;;;;;;;;;;;5.35;75.33;98340.50;4327621;33;35674;-65
2022/12/16 04:02:37;;;;;;;;;;;;;;;5.53;74.50;98338.28;4328640;33;33967;-64
2022/12/16 04:05:05;;;;;;;;;;;;;;;5.86;72.46;98317.19;4328969;33;33053;-64
2022/12/16 04:07:32;;;;;;;;;;;;;;;5.36;74.89;98318.34;4330583;33;33505;-64
2022/12/16 04:10:00;;;;;;;;;;;;;;;5.73;73.17;98315.50;4330361;33;34017;-66
2022/12/16 04:27:23;;;;;;;;;;;;;;;5.16;76.64;98281.84;4333551;32;33231;-66
2022/12/16 04:29:21;;;;;;;;;;;;;;;5.65;75.36;98304.62;4344925;33;33847;-64
2022/12/16 04:31:48;;;;;;;;;;;;;;;5.81;73.57;98302.47;4342874;32;32863;-66
2022/12/16 04:34:24;;;;;;;;;;;;;;;6.00;72.89;98306.34;4336622;32;34216;-63
